Hauptseite
METAR-TAF:

METAR-TAF

Flughäfen :

Flughafen Trapani

Trapani, Italien

Breite: 37-55N, Länge: 012-30E, Höhe: 7 m

Beobachtung

Neuester Wetterbericht von vor 1 Stunde und 7 Minuten, um 05:55 UTC
Wind 4 kt aus Süd/Südost
Temperatur 12°C
Luftfeuchtigkeit 88%
Luftdruck 1015 hPa
Sichtweite 10 km oder mehr
Aufgelockert bewölkt in der Höhe von 2200 ft
Leichtregen

METAR: LICT 090555Z 16004KT 9999 -RA SCT022 12/10 Q1015 RMK OVC BKN070 VIS MIN 9999 WIND THR13 12003KT BLU

Zeit: 08:02 (07:02 UTC)

Prognose

Neuester Wetterbericht von vor 2 Stunden und 2 Minuten, um 05:00 UTC
Gültige Prognose vom 09 um 06 UTC bis 09 um 15 UTC
Wind 3 kt aus unterschiedlichen Richtungen
Sichtweite 10 km oder mehr
Aufgelockert bewölkt in der Höhe von 2500 ft

TAF: LICT 090500Z 0906/0915 VRB03KT 9999 SCT025

Wetterbeobachtungen und Prognosen von mehr als 4000 Flughäfen (METAR und TAF Bericht).

Die verfügbaren Stationen werden durch gelbe und rote Markierungen auf der Karte dargestellt.

Führen Sie die Maus auf sie, um den Namen der Station zu sehen.

Darauf klicken, um die Beobachtung von Wetterbeobachtungen und Prognosen zu sehen.

Um die Karte zu ändern : klicken Sie auf den grünen Tasten mit einem schwarzen Kreuz Zum Vergrößern, auf den grünen Button mit einem Gedankenstrich zu verkleinern, oder auf die grünen Pfeile für benachbarte Karten.


METAR-TAF: